Time;durP1;ratioP1;P1;durP2;ratioP2;P2;SDS_P1;SDS_P2;PMS_P1;PMS_P2;Temp;Humidity;BMP_temperature;BMP_pressure;BME280_temperature;BME280_humidity;BME280_pressure;Samples;Min_cycle;Max_cycle;Signal;HPM_P1;HPM_P2
2022/10/05 00:01:27;;;;;;;;;;;7.20;99.90;;;;;;5062023;28;19928;-77
2022/10/05 00:03:57;;;;;;;;;;;7.10;99.90;;;;;;5046690;28;19939;-78
2022/10/05 00:06:24;;;;;;;;;;;7.00;99.90;;;;;;5049483;28;20000;-77
2022/10/05 00:08:50;;;;;;;;;;;6.90;99.90;;;;;;5055442;28;20386;-78
2022/10/05 00:11:15;;;;;;;;;;;6.80;99.90;;;;;;5058583;28;19931;-78
2022/10/05 00:13:41;;;;;;;;;;;6.70;99.90;;;;;;5056653;28;19916;-78
2022/10/05 00:16:07;;;;;;;;;;;6.70;99.90;;;;;;5063130;28;19965;-79
2022/10/05 00:18:32;;;;;;;;;;;6.60;99.90;;;;;;5057478;28;20054;-78
2022/10/05 00:20:58;;;;;;;;;;;6.60;99.90;;;;;;5059904;28;19966;-78
2022/10/05 00:23:28;;;;;;;;;;;6.50;99.90;;;;;;5052768;28;19921;-79
2022/10/05 00:25:54;;;;;;;;;;;6.50;99.90;;;;;;5052254;28;19917;-78
2022/10/05 00:28:29;;;;;;;;;;;6.50;99.90;;;;;;5051739;28;20353;-78
2022/10/05 00:30:56;;;;;;;;;;;6.50;99.90;;;;;;5061900;28;19956;-78
2022/10/05 00:33:21;;;;;;;;;;;6.50;99.90;;;;;;5060941;28;19919;-78
2022/10/05 00:35:47;;;;;;;;;;;6.40;99.90;;;;;;5065130;28;19916;-77
2022/10/05 00:38:12;;;;;;;;;;;6.50;99.90;;;;;;5066019;28;19917;-78
2022/10/05 00:40:44;;;;;;;;;;;6.40;99.90;;;;;;5067008;28;19921;-78
2022/10/05 00:43:22;;;;;;;;;;;6.40;99.90;;;;;;5067956;28;19924;-78
2022/10/05 00:45:53;;;;;;;;;;;6.40;99.90;;;;;;5065482;28;19920;-78
2022/10/05 00:48:24;;;;;;;;;;;6.50;99.90;;;;;;5068165;28;19931;-78
2022/10/05 00:51:09;;;;;;;;;;;6.60;99.90;;;;;;5065050;28;19921;-78
2022/10/05 00:53:57;;;;;;;;;;;6.60;99.90;;;;;;5061550;28;19947;-78
2022/10/05 00:56:32;;;;;;;;;;;6.70;99.90;;;;;;5043647;28;19920;-78
2022/10/05 00:59:09;;;;;;;;;;;6.80;99.90;;;;;;5066103;28;20421;-78
2022/10/05 01:01:34;;;;;;;;;;;6.80;99.90;;;;;;5066552;28;19932;-78
2022/10/05 01:04:19;;;;;;;;;;;6.80;99.90;;;;;;5068135;28;19920;-78
2022/10/05 01:07:05;;;;;;;;;;;6.80;99.90;;;;;;5064592;28;19927;-78
2022/10/05 01:09:33;;;;;;;;;;;6.80;99.90;;;;;;5063528;28;19920;-78
2022/10/05 01:12:06;;;;;;;;;;;6.90;99.90;;;;;;5068034;28;19916;-78
2022/10/05 01:14:40;;;;;;;;;;;6.90;99.90;;;;;;5067849;28;19948;-78
2022/10/05 01:17:23;;;;;;;;;;;7.00;99.90;;;;;;5065339;28;20608;-78
2022/10/05 01:19:57;;;;;;;;;;;7.10;99.90;;;;;;5064286;28;20038;-79
2022/10/05 01:22:22;;;;;;;;;;;7.20;99.90;;;;;;5067796;28;19925;-79
2022/10/05 01:25:08;;;;;;;;;;;7.20;99.90;;;;;;5067913;28;19920;-77
2022/10/05 01:28:00;;;;;;;;;;;7.30;99.90;;;;;;5057797;28;19912;-77
2022/10/05 01:30:28;;;;;;;;;;;7.30;99.90;;;;;;5062625;28;19917;-78
2022/10/05 01:33:08;;;;;;;;;;;7.30;99.90;;;;;;5066914;28;20374;-77
2022/10/05 01:35:43;;;;;;;;;;;7.30;99.90;;;;;;5068316;28;19943;-78
2022/10/05 01:38:14;;;;;;;;;;;7.40;99.90;;;;;;5065490;28;19918;-78
2022/10/05 01:40:39;;;;;;;;;;;7.50;99.90;;;;;;5068209;28;19963;-78
2022/10/05 01:43:19;;;;;;;;;;;7.50;99.90;;;;;;5064782;28;20351;-78
2022/10/05 01:45:54;;;;;;;;;;;7.60;99.90;;;;;;5064178;28;19924;-78
2022/10/05 01:48:34;;;;;;;;;;;7.60;99.90;;;;;;5063057;28;19920;-78
2022/10/05 01:51:25;;;;;;;;;;;7.60;99.90;;;;;;5062523;28;19913;-77
2022/10/05 01:53:53;;;;;;;;;;;7.60;99.90;;;;;;5068157;28;19912;-78
2022/10/05 01:56:23;;;;;;;;;;;7.70;99.90;;;;;;5066714;28;19923;-78
2022/10/05 01:59:14;;;;;;;;;;;7.60;99.90;;;;;;5062678;28;20469;-78
2022/10/05 02:02:00;;;;;;;;;;;7.80;99.90;;;;;;5067252;28;19920;-78
2022/10/05 02:04:44;;;;;;;;;;;7.70;99.90;;;;;;5067724;28;19961;-78
2022/10/05 02:07:17;;;;;;;;;;;7.60;99.90;;;;;;5067529;28;19959;-78
2022/10/05 02:09:45;;;;;;;;;;;7.50;99.90;;;;;;5058632;28;19920;-78
2022/10/05 02:12:18;;;;;;;;;;;7.40;99.90;;;;;;5066784;28;19969;-77
2022/10/05 02:14:46;;;;;;;;;;;7.40;99.90;;;;;;5063403;28;19952;-77
2022/10/05 02:17:13;;;;;;;;;;;7.40;99.90;;;;;;5068871;28;19982;-77
2022/10/05 02:19:47;;;;;;;;;;;7.30;99.90;;;;;;5067586;28;19959;-79
2022/10/05 02:22:39;;;;;;;;;;;7.30;99.90;;;;;;5070321;28;20302;-79
2022/10/05 02:25:08;;;;;;;;;;;7.20;99.90;;;;;;5063015;28;20425;-79
2022/10/05 02:27:36;;;;;;;;;;;7.10;99.90;;;;;;5066749;28;19917;-79
2022/10/05 02:30:04;;;;;;;;;;;7.10;99.90;;;;;;5068669;28;19928;-78
2022/10/05 02:32:34;;;;;;;;;;;7.10;99.90;;;;;;5070800;28;19923;-79
2022/10/05 02:35:05;;;;;;;;;;;7.20;99.90;;;;;;5067273;28;20362;-79
2022/10/05 02:37:38;;;;;;;;;;;7.20;99.90;;;;;;5063262;28;20397;-80
2022/10/05 02:40:09;;;;;;;;;;;7.20;99.90;;;;;;5067663;28;19913;-79
2022/10/05 02:42:35;;;;;;;;;;;7.30;99.90;;;;;;5064521;28;19917;-79
2022/10/05 02:45:06;;;;;;;;;;;7.30;99.90;;;;;;5061701;28;19931;-80
2022/10/05 02:47:35;;;;;;;;;;;7.40;99.90;;;;;;5064800;28;19917;-79
2022/10/05 02:50:00;;;;;;;;;;;7.30;99.90;;;;;;5068613;28;19920;-79
2022/10/05 02:52:31;;;;;;;;;;;7.20;99.90;;;;;;5060177;28;19916;-79
2022/10/05 02:55:17;;;;;;;;;;;7.20;99.90;;;;;;5066487;28;19916;-79
2022/10/05 02:58:00;;;;;;;;;;;7.10;99.90;;;;;;5064987;28;20390;-79
2022/10/05 03:00:30;;;;;;;;;;;7.10;99.90;;;;;;5064411;28;19923;-79
2022/10/05 03:03:07;;;;;;;;;;;7.10;99.90;;;;;;5066718;28;19919;-78
2022/10/05 03:05:36;;;;;;;;;;;7.10;99.90;;;;;;5068523;28;19919;-78
2022/10/05 03:08:16;;;;;;;;;;;7.10;99.90;;;;;;5068974;28;19978;-79
2022/10/05 03:10:42;;;;;;;;;;;7.10;99.90;;;;;;5068143;28;19919;-79
2022/10/05 03:13:22;;;;;;;;;;;7.10;99.90;;;;;;5065183;28;20274;-78
2022/10/05 03:16:01;;;;;;;;;;;7.10;99.90;;;;;;5065431;28;19918;-79
2022/10/05 03:18:32;;;;;;;;;;;7.00;99.90;;;;;;5066460;28;20011;-78
2022/10/05 03:21:04;;;;;;;;;;;7.00;99.90;;;;;;5069829;28;19912;-78
2022/10/05 03:23:29;;;;;;;;;;;7.10;99.90;;;;;;5066686;28;19924;-78
2022/10/05 03:26:01;;;;;;;;;;;7.10;99.90;;;;;;5068350;28;20379;-78
2022/10/05 03:28:48;;;;;;;;;;;7.10;99.90;;;;;;5065499;28;19977;-78
2022/10/05 03:31:29;;;;;;;;;;;7.10;99.90;;;;;;5058794;28;20394;-79
2022/10/05 03:33:59;;;;;;;;;;;7.10;99.90;;;;;;5051721;28;19921;-78
2022/10/05 03:36:28;;;;;;;;;;;7.10;99.90;;;;;;5052535;28;20005;-78
2022/10/05 03:38:57;;;;;;;;;;;7.00;99.90;;;;;;5056661;28;19920;-78
2022/10/05 03:41:22;;;;;;;;;;;6.90;99.90;;;;;;5051498;28;19920;-79
2022/10/05 03:44:06;;;;;;;;;;;6.90;99.90;;;;;;5052138;28;19921;-78
2022/10/05 03:46:32;;;;;;;;;;;6.90;99.90;;;;;;5060916;28;20232;-79
2022/10/05 03:49:07;;;;;;;;;;;6.90;99.90;;;;;;5052838;28;20434;-78
2022/10/05 03:51:41;;;;;;;;;;;6.80;99.90;;;;;;5062112;28;19913;-78
2022/10/05 03:54:28;;;;;;;;;;;6.90;99.90;;;;;;5056103;28;19971;-78
2022/10/05 03:56:55;;;;;;;;;;;6.90;99.90;;;;;;5048528;28;19923;-78
2022/10/05 03:59:38;;;;;;;;;;;6.80;99.90;;;;;;5053717;28;19917;-78
2022/10/05 04:02:05;;;;;;;;;;;6.80;99.90;;;;;;5054027;28;20322;-79
2022/10/05 04:04:36;;;;;;;;;;;6.80;99.90;;;;;;5055732;28;19913;-79
2022/10/05 04:07:02;;;;;;;;;;;6.70;99.90;;;;;;5050798;28;19920;-79
2022/10/05 04:09:35;;;;;;;;;;;6.70;99.90;;;;;;5059265;28;19927;-78
2022/10/05 04:12:18;;;;;;;;;;;6.70;99.90;;;;;;5050824;28;20382;-79
2022/10/05 04:14:49;;;;;;;;;;;6.70;99.90;;;;;;5057724;28;19916;-79
2022/10/05 04:17:16;;;;;;;;;;;6.80;99.90;;;;;;5055069;28;20295;-78
2022/10/05 04:19:51;;;;;;;;;;;6.80;99.90;;;;;;5052937;28;20004;-78
2022/10/05 04:22:21;;;;;;;;;;;6.80;99.90;;;;;;5057555;28;19923;-79
2022/10/05 04:24:56;;;;;;;;;;;6.80;99.90;;;;;;5055449;28;19924;-78
2022/10/05 04:27:26;;;;;;;;;;;6.80;99.90;;;;;;5048309;28;19919;-78
2022/10/05 04:29:59;;;;;;;;;;;6.80;99.90;;;;;;5061839;28;20282;-78
2022/10/05 04:32:35;;;;;;;;;;;6.80;99.90;;;;;;5057101;28;19923;-78
2022/10/05 04:35:01;;;;;;;;;;;6.80;99.90;;;;;;5050653;28;19948;-78
2022/10/05 04:37:29;;;;;;;;;;;6.90;99.90;;;;;;5061735;28;20475;-79
2022/10/05 04:40:13;;;;;;;;;;;7.00;99.90;;;;;;5055462;28;19967;-81
2022/10/05 04:42:43;;;;;;;;;;;6.90;99.90;;;;;;5048349;28;19921;-81
2022/10/05 04:45:13;;;;;;;;;;;7.00;99.90;;;;;;5058272;28;19925;-78
2022/10/05 04:47:41;;;;;;;;;;;7.00;99.90;;;;;;5051514;28;19921;-78
2022/10/05 04:50:07;;;;;;;;;;;7.00;99.90;;;;;;5052330;28;19921;-79
2022/10/05 04:52:38;;;;;;;;;;;6.90;99.90;;;;;;5058822;28;19917;-80
2022/10/05 04:55:04;;;;;;;;;;;6.90;99.90;;;;;;5056224;28;19995;-80
2022/10/05 04:57:29;;;;;;;;;;;6.80;99.90;;;;;;5057138;28;20070;-79
2022/10/05 05:00:04;;;;;;;;;;;6.70;99.90;;;;;;5051101;28;19923;-79
2022/10/05 05:02:30;;;;;;;;;;;6.70;99.90;;;;;;5055432;28;19917;-79
2022/10/05 05:04:55;;;;;;;;;;;6.70;99.90;;;;;;5053442;28;19965;-80
2022/10/05 05:07:30;;;;;;;;;;;6.70;99.90;;;;;;5060752;28;20290;-82
2022/10/05 05:09:55;;;;;;;;;;;6.70;99.90;;;;;;5052632;28;19943;-82
2022/10/05 05:12:24;;;;;;;;;;;6.70;99.90;;;;;;5048218;28;20382;-83
2022/10/05 05:14:49;;;;;;;;;;;6.70;99.90;;;;;;5049267;28;19928;-81
2022/10/05 05:17:15;;;;;;;;;;;6.70;99.90;;;;;;5055512;28;19916;-82
2022/10/05 05:19:40;;;;;;;;;;;6.70;99.90;;;;;;5050685;28;20566;-78
2022/10/05 05:22:10;;;;;;;;;;;6.70;99.90;;;;;;5050042;28;19912;-78
2022/10/05 05:24:41;;;;;;;;;;;6.70;99.90;;;;;;5047453;28;19917;-78
2022/10/05 05:27:31;;;;;;;;;;;6.70;99.90;;;;;;5041028;28;19920;-78
2022/10/05 05:30:03;;;;;;;;;;;6.70;99.90;;;;;;5051328;28;19952;-77
2022/10/05 05:32:47;;;;;;;;;;;6.60;99.90;;;;;;5053659;28;19932;-76
2022/10/05 05:35:31;;;;;;;;;;;6.70;99.90;;;;;;5048031;28;19966;-79
2022/10/05 05:38:00;;;;;;;;;;;6.70;99.90;;;;;;5053084;28;19920;-76
2022/10/05 05:40:28;;;;;;;;;;;6.70;99.90;;;;;;5053124;28;19962;-79
2022/10/05 05:42:58;;;;;;;;;;;6.80;99.90;;;;;;5051294;28;19955;-80
2022/10/05 05:45:35;;;;;;;;;;;6.80;99.90;;;;;;5055032;28;20131;-77
2022/10/05 05:48:03;;;;;;;;;;;6.80;99.90;;;;;;5046899;28;19923;-76
2022/10/05 05:50:38;;;;;;;;;;;6.90;99.90;;;;;;5057738;28;19917;-78
2022/10/05 05:53:09;;;;;;;;;;;6.90;99.90;;;;;;5063505;28;19958;-78
2022/10/05 05:55:39;;;;;;;;;;;6.90;99.90;;;;;;5056908;28;19912;-78
2022/10/05 05:58:10;;;;;;;;;;;7.00;99.90;;;;;;5058305;28;20470;-79
2022/10/05 06:00:45;;;;;;;;;;;7.00;99.90;;;;;;5062669;28;19920;-78
2022/10/05 06:03:29;;;;;;;;;;;7.00;99.90;;;;;;5058818;28;19923;-78
2022/10/05 06:06:00;;;;;;;;;;;7.10;99.90;;;;;;5058708;28;19920;-78
2022/10/05 06:08:46;;;;;;;;;;;7.20;99.90;;;;;;5063836;28;19917;-77
2022/10/05 06:11:20;;;;;;;;;;;7.20;99.90;;;;;;5053730;28;19916;-76
2022/10/05 06:13:46;;;;;;;;;;;7.30;99.90;;;;;;5053822;28;19920;-77
2022/10/05 06:16:17;;;;;;;;;;;7.30;99.90;;;;;;5063149;28;20617;-78
2022/10/05 06:18:46;;;;;;;;;;;7.40;99.90;;;;;;5058597;28;19913;-77
2022/10/05 06:21:19;;;;;;;;;;;7.40;99.90;;;;;;5062330;28;19964;-77
2022/10/05 06:23:48;;;;;;;;;;;7.40;99.90;;;;;;5061460;28;20010;-78
2022/10/05 06:26:18;;;;;;;;;;;7.60;99.90;;;;;;5052049;28;19924;-77
2022/10/05 06:28:47;;;;;;;;;;;7.60;99.90;;;;;;5062467;28;19917;-77
2022/10/05 06:31:13;;;;;;;;;;;7.60;99.90;;;;;;5063038;28;19928;-78
2022/10/05 06:33:55;;;;;;;;;;;7.80;99.90;;;;;;5050588;28;19921;-77
2022/10/05 06:36:27;;;;;;;;;;;7.90;99.90;;;;;;5063527;28;20671;-78
2022/10/05 06:39:02;;;;;;;;;;;7.90;99.90;;;;;;5057712;28;19919;-77
2022/10/05 06:41:52;;;;;;;;;;;8.00;99.90;;;;;;5047749;28;19912;-78
2022/10/05 06:44:17;;;;;;;;;;;8.10;99.90;;;;;;5054407;28;20414;-77
2022/10/05 06:46:53;;;;;;;;;;;8.20;99.90;;;;;;5044648;28;19948;-77
2022/10/05 06:49:26;;;;;;;;;;;8.30;99.90;;;;;;5055523;28;20371;-77
2022/10/05 06:51:52;;;;;;;;;;;8.30;99.90;;;;;;5047431;28;19920;-77
2022/10/05 06:54:32;;;;;;;;;;;8.40;99.90;;;;;;5055995;28;19921;-78
2022/10/05 06:57:08;;;;;;;;;;;8.50;99.90;;;;;;5057928;28;19951;-78
2022/10/05 06:59:45;;;;;;;;;;;8.50;99.90;;;;;;5060071;28;19916;-77
2022/10/05 07:02:17;;;;;;;;;;;8.60;99.90;;;;;;5059746;28;19963;-76
2022/10/05 07:04:42;;;;;;;;;;;8.70;99.90;;;;;;5046528;28;19920;-77
2022/10/05 07:07:08;;;;;;;;;;;8.70;99.90;;;;;;5054509;28;19912;-78
2022/10/05 07:09:52;;;;;;;;;;;8.80;99.90;;;;;;5057143;28;20378;-77
2022/10/05 07:12:20;;;;;;;;;;;8.80;99.90;;;;;;5054558;28;19951;-77
2022/10/05 07:14:58;;;;;;;;;;;8.90;99.90;;;;;;5062999;28;20328;-77
2022/10/05 07:17:43;;;;;;;;;;;9.10;99.90;;;;;;5059187;28;19920;-77
2022/10/05 07:20:20;;;;;;;;;;;9.10;99.90;;;;;;5044432;28;19917;-77
2022/10/05 07:22:46;;;;;;;;;;;9.20;99.90;;;;;;5057256;28;19946;-77
2022/10/05 07:25:30;;;;;;;;;;;9.30;99.90;;;;;;5056728;28;19921;-77
2022/10/05 07:27:55;;;;;;;;;;;9.30;99.90;;;;;;5053455;28;19917;-77
2022/10/05 07:30:21;;;;;;;;;;;9.40;99.90;;;;;;5060603;28;19994;-77
2022/10/05 07:32:54;;;;;;;;;;;9.40;99.90;;;;;;5053615;28;20422;-77
2022/10/05 07:38:40;;;;;;;;;;;9.50;99.90;;;;;;5055115;28;20454;-76
2022/10/05 07:41:13;;;;;;;;;;;9.60;99.90;;;;;;5054610;28;19917;-77
2022/10/05 07:43:57;;;;;;;;;;;9.70;99.90;;;;;;5051687;28;19929;-77
2022/10/05 07:46:25;;;;;;;;;;;9.70;99.90;;;;;;5047960;28;19916;-77
2022/10/05 07:49:09;;;;;;;;;;;9.80;99.90;;;;;;5048877;28;20422;-77
2022/10/05 07:51:37;;;;;;;;;;;9.80;99.90;;;;;;5061002;28;20282;-77
2022/10/05 07:54:23;;;;;;;;;;;9.80;99.90;;;;;;5056067;28;19916;-77
2022/10/05 07:57:09;;;;;;;;;;;9.80;99.90;;;;;;5048817;28;20587;-77
2022/10/05 07:59:40;;;;;;;;;;;9.90;99.90;;;;;;5038265;28;19917;-77
2022/10/05 08:02:26;;;;;;;;;;;9.90;99.90;;;;;;5053127;28;19944;-77
2022/10/05 08:04:56;;;;;;;;;;;10.00;99.90;;;;;;4999806;28;19966;-77
2022/10/05 08:07:22;;;;;;;;;;;10.10;99.90;;;;;;5060851;28;20011;-77
2022/10/05 08:10:02;;;;;;;;;;;10.20;99.90;;;;;;5052731;28;20055;-78
2022/10/05 08:12:30;;;;;;;;;;;10.20;99.90;;;;;;5051604;28;19921;-77
2022/10/05 08:15:04;;;;;;;;;;;10.40;99.90;;;;;;5064500;28;19919;-77
2022/10/05 08:17:36;;;;;;;;;;;10.30;99.90;;;;;;5055675;28;19917;-78
2022/10/05 08:20:04;;;;;;;;;;;10.40;99.90;;;;;;5062656;28;19923;-77
2022/10/05 08:22:33;;;;;;;;;;;10.60;99.90;;;;;;5060363;28;20340;-78
2022/10/05 08:25:04;;;;;;;;;;;10.70;99.90;;;;;;5055677;28;19967;-77
2022/10/05 08:27:42;;;;;;;;;;;11.00;99.90;;;;;;5052028;28;19947;-77
2022/10/05 08:30:12;;;;;;;;;;;11.10;99.90;;;;;;5057717;28;20381;-78
2022/10/05 08:33:00;;;;;;;;;;;11.10;99.90;;;;;;5074645;28;20454;-78
2022/10/05 08:35:37;;;;;;;;;;;11.20;99.90;;;;;;5066945;28;19921;-77
2022/10/05 08:38:11;;;;;;;;;;;11.30;99.90;;;;;;5079291;28;19920;-77
2022/10/05 08:40:45;;;;;;;;;;;11.40;99.90;;;;;;5073545;28;19920;-77
2022/10/05 08:43:31;;;;;;;;;;;11.50;99.90;;;;;;5075315;28;19924;-77
2022/10/05 08:46:06;;;;;;;;;;;11.50;99.90;;;;;;5074503;28;19978;-77
2022/10/05 08:48:50;;;;;;;;;;;11.70;99.90;;;;;;5073636;28;19920;-77
2022/10/05 08:51:21;;;;;;;;;;;12.00;99.90;;;;;;5078547;28;19916;-77
2022/10/05 08:54:05;;;;;;;;;;;12.20;99.90;;;;;;5078715;28;19912;-77
2022/10/05 08:56:33;;;;;;;;;;;12.20;99.90;;;;;;5071050;28;19958;-77
2022/10/05 08:59:17;;;;;;;;;;;12.20;99.90;;;;;;5077494;28;19927;-77
2022/10/05 09:02:02;;;;;;;;;;;12.50;99.90;;;;;;5065046;28;20375;-77
2022/10/05 09:04:39;;;;;;;;;;;12.50;99.90;;;;;;5050862;28;19920;-77
2022/10/05 09:07:05;;;;;;;;;;;12.50;99.90;;;;;;5050139;28;19964;-77
2022/10/05 09:09:33;;;;;;;;;;;12.60;99.90;;;;;;5051587;28;19956;-77
2022/10/05 09:12:17;;;;;;;;;;;12.80;99.90;;;;;;5051319;28;20450;-77
2022/10/05 09:14:49;;;;;;;;;;;13.10;99.90;;;;;;5056948;28;19927;-77
2022/10/05 09:17:17;;;;;;;;;;;13.10;99.90;;;;;;5055433;28;20372;-77
2022/10/05 09:20:01;;;;;;;;;;;13.20;99.90;;;;;;5054558;28;20275;-77
2022/10/05 09:22:53;;;;;;;;;;;13.20;99.60;;;;;;5055974;28;19919;-77
2022/10/05 09:25:25;;;;;;;;;;;13.30;99.90;;;;;;5058550;28;19917;-77
2022/10/05 09:28:16;;;;;;;;;;;13.50;99.90;;;;;;5063146;28;19917;-77
2022/10/05 09:30:57;;;;;;;;;;;13.60;99.90;;;;;;5057167;28;20655;-77
2022/10/05 09:33:24;;;;;;;;;;;13.70;99.90;;;;;;5059821;28;19916;-77
2022/10/05 09:35:57;;;;;;;;;;;13.90;97.70;;;;;;5065580;28;19955;-77
2022/10/05 09:38:31;;;;;;;;;;;13.90;98.00;;;;;;5055516;28;20298;-77
2022/10/05 09:41:15;;;;;;;;;;;14.10;98.60;;;;;;5061208;28;19912;-77
2022/10/05 09:43:48;;;;;;;;;;;14.10;95.30;;;;;;5066986;28;20558;-78
2022/10/05 09:46:41;;;;;;;;;;;14.10;94.10;;;;;;5060952;28;19987;-77
2022/10/05 09:49:12;;;;;;;;;;;14.40;95.60;;;;;;5055618;28;19927;-77
2022/10/05 09:51:57;;;;;;;;;;;14.50;91.90;;;;;;5060772;28;19921;-77
2022/10/05 09:54:32;;;;;;;;;;;14.50;91.00;;;;;;5057138;28;19924;-77
2022/10/05 09:57:33;;;;;;;;;;;14.70;91.50;;;;;;5064059;28;19912;-78
2022/10/05 10:00:06;;;;;;;;;;;15.10;88.60;;;;;;5027798;28;19924;-78
2022/10/05 10:02:31;;;;;;;;;;;15.30;89.20;;;;;;5061132;28;19921;-77
2022/10/05 10:05:06;;;;;;;;;;;15.50;89.40;;;;;;5064451;28;19917;-77
2022/10/05 10:07:37;;;;;;;;;;;15.50;84.40;;;;;;5062980;28;20325;-78
2022/10/05 10:10:18;;;;;;;;;;;15.80;91.90;;;;;;5064753;28;19932;-79
2022/10/05 10:12:56;;;;;;;;;;;16.00;91.00;;;;;;5064350;28;19916;-78
2022/10/05 10:15:24;;;;;;;;;;;16.10;91.20;;;;;;5063387;28;20279;-78
2022/10/05 10:18:16;;;;;;;;;;;16.10;82.70;;;;;;5064873;28;19920;-78
2022/10/05 10:20:48;;;;;;;;;;;16.10;83.60;;;;;;5056704;28;19916;-79
2022/10/05 10:23:13;;;;;;;;;;;16.20;84.70;;;;;;5061894;28;19921;-78
2022/10/05 10:25:39;;;;;;;;;;;16.30;82.10;;;;;;5066310;28;20015;-78
2022/10/05 10:28:24;;;;;;;;;;;16.40;77.50;;;;;;5066490;28;19924;-78
2022/10/05 10:30:50;;;;;;;;;;;16.70;78.90;;;;;;5060829;28;19935;-79
2022/10/05 10:33:34;;;;;;;;;;;16.90;77.50;;;;;;5067558;28;20023;-79
2022/10/05 10:36:03;;;;;;;;;;;17.00;74.50;;;;;;5061651;28;20007;-78
2022/10/05 10:38:43;;;;;;;;;;;17.40;75.50;;;;;;5065519;28;20035;-78
2022/10/05 10:41:09;;;;;;;;;;;17.50;73.90;;;;;;5067958;28;19928;-77
2022/10/05 10:43:53;;;;;;;;;;;17.70;73.20;;;;;;5064830;28;20295;-77
2022/10/05 10:46:38;;;;;;;;;;;17.90;71.80;;;;;;5068327;28;19916;-78
2022/10/05 10:49:15;;;;;;;;;;;18.50;72.40;;;;;;5063483;28;19920;-78
2022/10/05 10:51:43;;;;;;;;;;;18.80;69.40;;;;;;5063456;28;20010;-78
2022/10/05 10:54:18;;;;;;;;;;;19.20;68.60;;;;;;5062775;28;20559;-78
2022/10/05 10:56:46;;;;;;;;;;;19.30;66.70;;;;;;5067143;28;20006;-78
2022/10/05 10:59:31;;;;;;;;;;;19.30;67.40;;;;;;5063509;28;20050;-77
2022/10/05 11:01:56;;;;;;;;;;;19.40;68.30;;;;;;5055237;28;19988;-78
2022/10/05 11:04:33;;;;;;;;;;;19.70;66.40;;;;;;5049950;28;20371;-79
2022/10/05 11:07:18;;;;;;;;;;;19.80;66.40;;;;;;5049784;28;19916;-76
2022/10/05 11:09:43;;;;;;;;;;;20.10;65.50;;;;;;5051095;28;19921;-78
2022/10/05 11:12:44;;;;;;;;;;;20.20;62.30;;;;;;5063304;28;19917;-79
2022/10/05 11:15:22;;;;;;;;;;;20.00;63.30;;;;;;5023819;28;19917;-79
2022/10/05 11:18:03;;;;;;;;;;;20.00;61.30;;;;;;5053888;28;20462;-77
2022/10/05 11:20:29;;;;;;;;;;;20.20;62.60;;;;;;5052197;28;19989;-76
2022/10/05 11:23:11;;;;;;;;;;;20.40;61.60;;;;;;5053463;28;19916;-77
2022/10/05 11:25:52;;;;;;;;;;;20.70;60.30;;;;;;5048807;28;19917;-76
2022/10/05 11:28:29;;;;;;;;;;;21.00;61.60;;;;;;5058564;28;19912;-76
2022/10/05 11:31:08;;;;;;;;;;;21.40;60.10;;;;;;5052368;28;19979;-77
2022/10/05 11:33:52;;;;;;;;;;;21.60;59.00;;;;;;5051655;28;19912;-77
2022/10/05 11:36:24;;;;;;;;;;;21.70;57.00;;;;;;5055838;28;19978;-77
2022/10/05 11:39:00;;;;;;;;;;;21.40;57.30;;;;;;5054356;28;19917;-77
2022/10/05 11:41:45;;;;;;;;;;;21.90;56.70;;;;;;5058356;28;19912;-77
2022/10/05 11:44:14;;;;;;;;;;;22.00;56.50;;;;;;5060679;28;19924;-77
2022/10/05 11:46:48;;;;;;;;;;;22.70;55.00;;;;;;5050064;28;19943;-77
2022/10/05 11:49:13;;;;;;;;;;;22.90;52.80;;;;;;5055718;28;19921;-77
2022/10/05 11:51:59;;;;;;;;;;;22.80;54.90;;;;;;5051937;28;21500;-77
2022/10/05 11:54:28;;;;;;;;;;;23.10;53.50;;;;;;5056534;28;19917;-77
2022/10/05 11:57:02;;;;;;;;;;;23.20;51.60;;;;;;5052983;28;20289;-77
2022/10/05 11:59:39;;;;;;;;;;;22.70;52.10;;;;;;5055387;28;19912;-79
2022/10/05 12:02:05;;;;;;;;;;;22.50;51.20;;;;;;5051993;28;20008;-78
2022/10/05 12:04:49;;;;;;;;;;;22.90;52.50;;;;;;5057168;28;19980;-78
2022/10/05 12:07:26;;;;;;;;;;;22.70;52.20;;;;;;5061253;28;20298;-77
2022/10/05 12:10:13;;;;;;;;;;;23.20;50.30;;;;;;5051670;28;19921;-77
2022/10/05 12:12:44;;;;;;;;;;;23.70;48.70;;;;;;5058635;28;19916;-78
2022/10/05 12:15:17;;;;;;;;;;;24.00;47.70;;;;;;5058388;28;19921;-78
2022/10/05 12:17:50;;;;;;;;;;;23.50;47.70;;;;;;5056574;28;19913;-78
2022/10/05 12:20:15;;;;;;;;;;;23.30;50.70;;;;;;5063513;28;19913;-77
2022/10/05 12:22:45;;;;;;;;;;;23.60;47.60;;;;;;5060314;28;19971;-78
2022/10/05 12:25:30;;;;;;;;;;;23.80;48.40;;;;;;5051863;28;19913;-78
2022/10/05 12:27:58;;;;;;;;;;;24.00;48.60;;;;;;5058610;28;19916;-78
2022/10/05 12:30:26;;;;;;;;;;;24.00;47.50;;;;;;5049766;28;20685;-79
2022/10/05 12:33:00;;;;;;;;;;;23.80;47.20;;;;;;5056731;28;19999;-77
2022/10/05 12:35:30;;;;;;;;;;;24.00;48.80;;;;;;5053719;28;19922;-78
2022/10/05 12:38:04;;;;;;;;;;;25.30;46.90;;;;;;5050986;28;19939;-78
2022/10/05 12:40:35;;;;;;;;;;;24.80;44.00;;;;;;5047523;28;20026;-78
2022/10/05 12:43:16;;;;;;;;;;;24.50;44.90;;;;;;5062267;28;19912;-77
2022/10/05 12:45:42;;;;;;;;;;;24.60;44.80;;;;;;5054891;28;19924;-77
2022/10/05 12:48:17;;;;;;;;;;;25.50;44.00;;;;;;5047626;28;20066;-78
2022/10/05 12:50:48;;;;;;;;;;;25.30;44.40;;;;;;5039980;28;19956;-79
2022/10/05 12:53:32;;;;;;;;;;;25.10;46.10;;;;;;5053074;28;19920;-78
2022/10/05 12:56:06;;;;;;;;;;;25.70;43.80;;;;;;5044716;28;19920;-79
2022/10/05 12:58:34;;;;;;;;;;;25.50;41.80;;;;;;5058423;28;20054;-78
2022/10/05 13:01:05;;;;;;;;;;;25.20;43.90;;;;;;5056898;28;19975;-79
2022/10/05 13:03:46;;;;;;;;;;;25.30;43.50;;;;;;5042004;28;19916;-79
2022/10/05 13:06:18;;;;;;;;;;;25.70;43.40;;;;;;5059364;28;19924;-78
2022/10/05 13:09:07;;;;;;;;;;;26.00;38.40;;;;;;5051827;28;20406;-77
2022/10/05 13:11:33;;;;;;;;;;;26.70;37.10;;;;;;5038115;28;19917;-79
2022/10/05 13:14:06;;;;;;;;;;;26.60;32.60;;;;;;5061693;28;19924;-77
2022/10/05 13:16:41;;;;;;;;;;;26.70;32.70;;;;;;5053289;28;19913;-77
2022/10/05 13:19:06;;;;;;;;;;;26.90;33.30;;;;;;5052427;28;19948;-77
2022/10/05 13:21:56;;;;;;;;;;;27.10;31.20;;;;;;5056019;28;19963;-77
2022/10/05 13:24:25;;;;;;;;;;;26.00;33.50;;;;;;5050949;28;19912;-77
2022/10/05 13:27:13;;;;;;;;;;;26.10;33.00;;;;;;5053294;28;19920;-76
2022/10/05 13:29:39;;;;;;;;;;;26.30;33.00;;;;;;5055972;28;19986;-77
2022/10/05 13:32:11;;;;;;;;;;;26.60;33.50;;;;;;5061085;28;19920;-77
2022/10/05 13:35:12;;;;;;;;;;;26.60;32.90;;;;;;5072086;28;19923;-77
2022/10/05 13:37:46;;;;;;;;;;;26.80;32.40;;;;;;4997110;28;19936;-77
2022/10/05 13:40:18;;;;;;;;;;;27.90;32.30;;;;;;5058121;28;19920;-77
2022/10/05 13:42:47;;;;;;;;;;;27.80;30.90;;;;;;5074810;28;19927;-76
2022/10/05 13:45:15;;;;;;;;;;;27.80;31.50;;;;;;5075399;28;20193;-77
2022/10/05 13:47:52;;;;;;;;;;;27.80;32.80;;;;;;5069218;28;19913;-77
2022/10/05 13:50:32;;;;;;;;;;;27.60;31.10;;;;;;5074511;28;19920;-76
2022/10/05 13:53:12;;;;;;;;;;;28.00;30.50;;;;;;5066887;28;20437;-76
2022/10/05 13:55:44;;;;;;;;;;;27.30;31.70;;;;;;5073016;28;19920;-75
2022/10/05 13:58:28;;;;;;;;;;;27.50;32.50;;;;;;5080159;28;19988;-75
2022/10/05 14:00:54;;;;;;;;;;;27.20;31.50;;;;;;5075913;28;19920;-75
2022/10/05 14:03:49;;;;;;;;;;;27.40;31.00;;;;;;5067022;28;19927;-75
2022/10/05 14:06:29;;;;;;;;;;;27.70;31.20;;;;;;5074870;28;19921;-76
2022/10/05 14:08:56;;;;;;;;;;;27.80;30.00;;;;;;5069923;28;20449;-75
2022/10/05 14:11:22;;;;;;;;;;;27.90;31.80;;;;;;5069022;28;19927;-75
2022/10/05 14:13:48;;;;;;;;;;;28.20;31.50;;;;;;5078390;28;19916;-76
2022/10/05 14:16:24;;;;;;;;;;;28.40;29.40;;;;;;5079595;28;20447;-76
2022/10/05 14:18:54;;;;;;;;;;;27.40;31.00;;;;;;5076029;28;19916;-76
2022/10/05 14:21:21;;;;;;;;;;;26.60;30.50;;;;;;5079858;28;20485;-76
2022/10/05 14:23:48;;;;;;;;;;;27.30;32.00;;;;;;5076389;28;19916;-75
2022/10/05 14:26:16;;;;;;;;;;;27.40;32.20;;;;;;5069228;28;19919;-77
2022/10/05 14:28:55;;;;;;;;;;;27.40;29.90;;;;;;5076759;28;19963;-76
2022/10/05 14:31:45;;;;;;;;;;;27.30;30.70;;;;;;5073030;28;19926;-76
2022/10/05 14:34:30;;;;;;;;;;;26.70;31.90;;;;;;5072048;28;19912;-76
2022/10/05 14:37:14;;;;;;;;;;;28.50;30.50;;;;;;5074308;28;20282;-77
2022/10/05 14:39:40;;;;;;;;;;;28.60;29.30;;;;;;5069801;28;19924;-76
2022/10/05 14:42:12;;;;;;;;;;;28.10;28.90;;;;;;5070848;28;19912;-76
2022/10/05 14:44:38;;;;;;;;;;;28.10;28.90;;;;;;5076634;28;19968;-77
2022/10/05 14:47:18;;;;;;;;;;;28.10;29.80;;;;;;5070136;28;20619;-77
2022/10/05 14:49:49;;;;;;;;;;;28.50;28.30;;;;;;5077621;28;20619;-76
2022/10/05 14:52:30;;;;;;;;;;;28.60;28.70;;;;;;5076666;28;19970;-77
2022/10/05 14:54:59;;;;;;;;;;;28.10;30.70;;;;;;5073195;28;19916;-77
2022/10/05 14:57:36;;;;;;;;;;;28.00;30.00;;;;;;5077845;28;19916;-78
2022/10/05 15:00:07;;;;;;;;;;;29.30;28.30;;;;;;5065595;28;19916;-77
2022/10/05 15:02:34;;;;;;;;;;;29.70;29.20;;;;;;5074037;28;19920;-80
2022/10/05 15:05:19;;;;;;;;;;;29.70;26.50;;;;;;5081250;28;19955;-78
2022/10/05 15:07:48;;;;;;;;;;;28.50;27.90;;;;;;5078298;28;19928;-78